Time;durP1;ratioP1;P1;durP2;ratioP2;P2;SDS_P1;SDS_P2;PMS_P1;PMS_P2;Temp;Humidity;BMP_temperature;BMP_pressure;BME280_temperature;BME280_humidity;BME280_pressure;Samples;Min_cycle;Max_cycle;Signal;HPM_P1;HPM_P2
2022/01/29 00:02:19;;;;;;;74.72;20.00;;;6.80;93.30;;;;;;6240767;23;20038;-61
2022/01/29 00:04:46;;;;;;;66.43;19.38;;;6.70;93.30;;;;;;6214435;23;20406;-59
2022/01/29 00:07:12;;;;;;;71.50;18.33;;;6.70;93.30;;;;;;6240976;23;20028;-59
2022/01/29 00:09:38;;;;;;;61.92;17.27;;;6.70;93.30;;;;;;6240290;23;20376;-59
2022/01/29 00:12:04;;;;;;;60.05;18.10;;;6.70;93.30;;;;;;6212130;23;20016;-60
2022/01/29 00:14:29;;;;;;;72.40;18.42;;;6.70;93.20;;;;;;6213232;23;20074;-60
2022/01/29 00:16:55;;;;;;;60.42;17.90;;;6.70;93.60;;;;;;6163444;23;20011;-59
2022/01/29 00:19:20;;;;;;;59.50;17.52;;;6.60;93.20;;;;;;6214776;23;20004;-62
2022/01/29 00:21:46;;;;;;;63.78;17.70;;;6.60;93.20;;;;;;6240909;23;20477;-62
2022/01/29 00:24:11;;;;;;;63.42;16.17;;;6.60;93.20;;;;;;6212048;23;20004;-61
2022/01/29 00:26:37;;;;;;;66.60;17.77;;;6.60;93.30;;;;;;6239505;23;20008;-59
2022/01/29 00:29:09;;;;;;;66.75;18.02;;;6.60;93.20;;;;;;6241485;23;20034;-60
2022/01/29 00:31:35;;;;;;;65.55;17.92;;;6.60;93.20;;;;;;6241176;23;20000;-61
2022/01/29 00:34:00;;;;;;;57.88;16.33;;;6.60;93.20;;;;;;6241524;23;20085;-60
2022/01/29 00:36:26;;;;;;;60.47;18.35;;;6.50;93.10;;;;;;6212865;23;20419;-59
2022/01/29 00:38:51;;;;;;;48.78;16.50;;;6.50;93.10;;;;;;6212130;23;20031;-59
2022/01/29 00:41:17;;;;;;;58.35;16.52;;;6.50;93.10;;;;;;6241393;23;20068;-61
2022/01/29 00:43:42;;;;;;;49.08;15.00;;;6.50;93.10;;;;;;6241567;23;20288;-62
2022/01/29 00:46:08;;;;;;;55.58;16.00;;;6.40;93.00;;;;;;6241437;23;20421;-60
2022/01/29 00:48:33;;;;;;;51.58;15.43;;;6.50;93.10;;;;;;6240037;23;20000;-61
2022/01/29 00:51:00;;;;;;;49.00;15.45;;;6.40;93.10;;;;;;6239105;23;20008;-59
2022/01/29 00:53:26;;;;;;;48.30;14.60;;;6.40;93.10;;;;;;6239784;23;20009;-62
2022/01/29 00:55:51;;;;;;;54.83;15.88;;;6.40;93.10;;;;;;6240858;23;20088;-62
2022/01/29 00:58:17;;;;;;;54.83;16.67;;;6.30;93.10;;;;;;6214701;23;20461;-59
2022/01/29 01:00:44;;;;;;;42.80;15.02;;;6.30;93.10;;;;;;6214233;23;20028;-62
2022/01/29 01:03:09;;;;;;;51.00;15.13;;;6.30;93.10;;;;;;6187356;23;20012;-61
2022/01/29 01:05:35;;;;;;;48.28;14.88;;;6.30;93.10;;;;;;6188997;23;20011;-61
2022/01/29 01:08:00;;;;;;;53.22;15.02;;;6.30;93.10;;;;;;6242594;23;19996;-60
2022/01/29 01:10:26;;;;;;;45.17;16.17;;;6.30;93.10;;;;;;6243262;23;20023;-62
2022/01/29 01:12:51;;;;;;;42.60;14.77;;;6.20;93.10;;;;;;6242874;23;20054;-59
2022/01/29 01:15:17;;;;;;;50.40;14.73;;;6.20;93.10;;;;;;6215077;23;20054;-62
2022/01/29 01:17:43;;;;;;;48.70;14.48;;;6.20;93.10;;;;;;6242641;23;20278;-62
2022/01/29 01:20:09;;;;;;;45.50;13.40;;;6.20;93.10;;;;;;6243283;23;20000;-62
2022/01/29 01:22:34;;;;;;;52.60;14.60;;;6.20;93.10;;;;;;6215875;23;20032;-59
2022/01/29 01:25:00;;;;;;;51.30;14.90;;;6.20;93.10;;;;;;6243103;23;20004;-60
2022/01/29 01:27:26;;;;;;;44.05;15.25;;;6.20;93.10;;;;;;6214512;23;20000;-59
2022/01/29 01:29:51;;;;;;;47.70;15.20;;;6.20;93.10;;;;;;6213594;23;20004;-62
2022/01/29 01:32:17;;;;;;;36.28;14.20;;;6.20;93.20;;;;;;6214654;23;20050;-59
2022/01/29 01:34:47;;;;;;;43.85;14.23;;;6.20;93.10;;;;;;6190777;23;20361;-59
2022/01/29 01:37:23;;;;;;;27.77;13.27;;;6.10;93.10;;;;;;6242583;23;20094;-59
2022/01/29 01:39:48;;;;;;;;;;;6.20;93.10;;;;;;6194802;23;20296;-62
2022/01/29 01:42:14;;;;;;;;;;;6.10;93.10;;;;;;6240216;23;19903;-61
2022/01/29 01:44:46;;;;;;;42.20;13.90;;;6.10;93.10;;;;;;6241672;23;19925;-59
2022/01/29 01:47:15;;;;;;;45.55;13.38;;;6.10;93.00;;;;;;6191123;23;20012;-59
2022/01/29 01:49:41;;;;;;;36.00;13.43;;;6.10;93.00;;;;;;6242725;23;20104;-60
2022/01/29 01:52:09;;;;;;;45.75;14.13;;;6.00;93.10;;;;;;6214118;23;20106;-61
2022/01/29 01:54:35;;;;;;;39.58;13.80;;;6.00;93.00;;;;;;6238156;23;20056;-60
2022/01/29 01:57:00;;;;;;;43.70;13.63;;;6.00;93.10;;;;;;6183237;23;20060;-59
2022/01/29 01:59:27;;;;;;;38.83;13.10;;;6.00;93.00;;;;;;6185852;23;20032;-61
2022/01/29 02:01:52;;;;;;;32.97;13.70;;;6.00;93.10;;;;;;6211959;23;20413;-60
2022/01/29 02:04:18;;;;;;;32.83;12.48;;;6.00;93.10;;;;;;6210629;23;20005;-62
2022/01/29 02:06:43;;;;;;;35.90;13.13;;;6.00;93.10;;;;;;6209336;23;20479;-58
2022/01/29 02:09:13;;;;;;;34.08;12.52;;;6.00;93.10;;;;;;6208506;23;20008;-61
2022/01/29 02:11:48;;;;;;;34.83;13.38;;;5.90;93.00;;;;;;6211895;23;20485;-59
2022/01/29 02:14:14;;;;;;;31.77;12.45;;;5.90;93.10;;;;;;6185313;23;20009;-60
2022/01/29 02:16:39;;;;;;;32.95;12.27;;;5.90;93.10;;;;;;6211876;23;20426;-63
2022/01/29 02:19:04;;;;;;;34.53;13.65;;;5.90;93.00;;;;;;6208122;23;20435;-62
2022/01/29 02:21:30;;;;;;;27.17;12.13;;;5.90;93.10;;;;;;6206163;23;20095;-62
2022/01/29 02:23:55;;;;;;;32.75;13.15;;;5.80;93.10;;;;;;6206643;23;20087;-60
2022/01/29 02:26:21;;;;;;;38.53;14.10;;;5.80;93.10;;;;;;6211463;23;20130;-61
2022/01/29 02:28:47;;;;;;;33.30;12.52;;;5.80;93.10;;;;;;6212081;23;20024;-59
2022/01/29 02:31:12;;;;;;;32.28;13.13;;;5.80;93.10;;;;;;6209974;23;20000;-62
2022/01/29 02:33:40;;;;;;;32.33;12.20;;;5.80;93.10;;;;;;6210063;23;20011;-60
2022/01/29 02:36:06;;;;;;;40.00;12.70;;;5.80;93.10;;;;;;6211937;23;20414;-59
2022/01/29 02:38:32;;;;;;;30.50;13.10;;;5.80;93.10;;;;;;6209712;23;20005;-61
2022/01/29 02:41:06;;;;;;;34.80;12.70;;;5.70;93.10;;;;;;6210559;23;20087;-60
2022/01/29 02:44:00;;;;;;;30.92;11.70;;;5.70;93.10;;;;;;6211264;23;20487;-60
2022/01/29 02:46:47;;;;;;;29.10;11.88;;;5.70;93.10;;;;;;6187516;23;20077;-60
2022/01/29 02:49:13;;;;;;;31.15;11.45;;;5.80;93.10;;;;;;6210668;23;20088;-60
2022/01/29 02:51:49;;;;;;;27.90;12.55;;;5.70;93.00;;;;;;6210108;23;20323;-60
2022/01/29 02:54:14;;;;;;;33.92;12.48;;;5.70;93.00;;;;;;6210188;23;20062;-61
2022/01/29 02:56:40;;;;;;;29.63;12.18;;;5.70;93.10;;;;;;6183777;23;20322;-59
2022/01/29 02:59:06;;;;;;;30.05;12.05;;;5.70;93.10;;;;;;6208981;23;20005;-60
2022/01/29 03:01:31;;;;;;;26.98;11.82;;;5.70;93.10;;;;;;6211511;23;20053;-60
2022/01/29 03:03:57;;;;;;;25.98;12.32;;;5.70;93.10;;;;;;6209902;23;20016;-62
2022/01/29 03:06:22;;;;;;;33.28;12.48;;;5.70;93.10;;;;;;6211145;23;20001;-59
2022/01/29 03:08:48;;;;;;;28.38;12.68;;;5.70;93.10;;;;;;6209959;23;20005;-59
2022/01/29 03:11:19;;;;;;;28.83;11.88;;;5.70;93.10;;;;;;6209152;23;20142;-59
2022/01/29 03:13:44;;;;;;;28.30;12.65;;;5.70;93.10;;;;;;6209990;23;20115;-60
2022/01/29 03:16:10;;;;;;;23.83;11.57;;;5.70;93.10;;;;;;6185183;23;20036;-58
2022/01/29 03:18:35;;;;;;;25.98;11.32;;;5.70;93.20;;;;;;6211059;23;20004;-61
2022/01/29 03:21:01;;;;;;;26.70;11.43;;;5.70;93.10;;;;;;6184697;23;20028;-62
2022/01/29 03:23:26;;;;;;;30.30;11.68;;;5.70;93.20;;;;;;6208741;23;20449;-62
2022/01/29 03:25:52;;;;;;;30.45;11.85;;;5.60;93.10;;;;;;6209075;23;20007;-61
2022/01/29 03:28:17;;;;;;;27.48;11.32;;;5.60;93.10;;;;;;6209990;23;20418;-62
2022/01/29 03:30:43;;;;;;;24.83;11.00;;;5.70;93.20;;;;;;6211088;23;20414;-62
2022/01/29 03:33:08;;;;;;;23.48;11.65;;;5.70;93.20;;;;;;6210939;23;20032;-60
2022/01/29 03:35:34;;;;;;;27.55;12.40;;;5.60;93.20;;;;;;6207929;23;20464;-62
2022/01/29 03:37:59;;;;;;;24.05;12.52;;;5.60;93.20;;;;;;6208820;23;20419;-61
2022/01/29 03:40:25;;;;;;;28.65;11.45;;;5.60;93.20;;;;;;6210718;23;20008;-62
2022/01/29 03:43:27;;;;;;;24.58;11.25;;;5.60;93.20;;;;;;6211237;23;20004;-60
2022/01/29 03:45:42;;;;;;;24.67;11.30;;;5.60;93.20;;;;;;6209496;23;20023;-61
2022/01/29 03:48:08;;;;;;;29.15;12.55;;;5.60;93.30;;;;;;6207654;23;20004;-62
2022/01/29 03:50:34;;;;;;;28.92;12.18;;;5.60;93.30;;;;;;6206602;23;20012;-62
2022/01/29 03:52:59;;;;;;;24.98;11.13;;;5.60;93.30;;;;;;6207803;23;20004;-60
2022/01/29 03:55:25;;;;;;;24.13;11.40;;;5.60;93.30;;;;;;6210786;23;20004;-62
2022/01/29 03:57:50;;;;;;;26.30;10.93;;;5.50;93.30;;;;;;6188065;23;20448;-60
2022/01/29 04:00:16;;;;;;;22.77;11.65;;;5.50;93.40;;;;;;6240709;23;20057;-59
2022/01/29 04:02:41;;;;;;;23.98;10.55;;;5.50;93.40;;;;;;6238802;23;20001;-60
2022/01/29 04:05:07;;;;;;;20.48;10.73;;;5.50;93.40;;;;;;6186715;23;20059;-61
2022/01/29 04:07:33;;;;;;;25.88;11.57;;;5.50;93.40;;;;;;6186865;23;20094;-62
2022/01/29 04:09:59;;;;;;;24.30;10.50;;;5.50;93.40;;;;;;6214867;23;20531;-61
2022/01/29 04:12:27;;;;;;;23.08;10.68;;;5.50;93.40;;;;;;6241403;23;20012;-58
2022/01/29 04:14:54;;;;;;;21.73;11.18;;;5.50;93.50;;;;;;6239583;23;20411;-62
2022/01/29 04:17:20;;;;;;;24.33;11.27;;;5.50;93.50;;;;;;6238420;23;20012;-61
2022/01/29 04:19:45;;;;;;;21.63;10.68;;;5.50;93.50;;;;;;6213513;23;20004;-60
2022/01/29 04:22:11;;;;;;;21.05;11.10;;;5.50;93.50;;;;;;6241136;23;20373;-60
2022/01/29 04:24:36;;;;;;;20.63;11.20;;;5.50;93.50;;;;;;6214538;23;20463;-59
2022/01/29 04:27:04;;;;;;;22.65;11.40;;;5.50;93.50;;;;;;6213285;23;20018;-60
2022/01/29 04:29:40;;;;;;;19.17;10.63;;;5.50;93.50;;;;;;6238863;23;20054;-60
2022/01/29 04:32:11;;;;;;;27.65;11.43;;;5.50;93.50;;;;;;6214770;23;20016;-61
2022/01/29 04:34:37;;;;;;;20.40;11.82;;;5.50;93.50;;;;;;6215714;23;20070;-61
2022/01/29 04:37:02;;;;;;;24.30;10.90;;;5.50;93.50;;;;;;6213728;23;20436;-59
2022/01/29 04:39:28;;;;;;;18.67;10.80;;;5.40;93.50;;;;;;6242743;23;20080;-59
2022/01/29 04:41:53;;;;;;;20.35;10.30;;;5.50;93.50;;;;;;6241081;23;20015;-60
2022/01/29 04:44:19;;;;;;;21.30;11.02;;;5.50;93.50;;;;;;6189446;23;20468;-63
2022/01/29 04:46:44;;;;;;;23.88;11.05;;;5.50;93.50;;;;;;6215670;23;20283;-61
2022/01/29 04:49:10;;;;;;;24.30;11.15;;;5.50;93.50;;;;;;6243257;23;20008;-61
2022/01/29 04:51:35;;;;;;;25.20;10.52;;;5.40;93.50;;;;;;6190669;23;20008;-62
2022/01/29 04:54:01;;;;;;;21.58;10.07;;;5.50;93.50;;;;;;6214495;23;20000;-62
2022/01/29 04:56:27;;;;;;;20.42;11.05;;;5.50;93.50;;;;;;6213648;23;20449;-61
2022/01/29 04:58:52;;;;;;;18.02;10.68;;;5.40;93.40;;;;;;6242366;23;20049;-59
2022/01/29 05:01:18;;;;;;;15.75;10.30;;;5.50;93.50;;;;;;6214470;23;20034;-60
2022/01/29 05:03:44;;;;;;;20.25;10.93;;;5.40;93.40;;;;;;6213608;23;20437;-62
2022/01/29 05:06:10;;;;;;;18.98;11.88;;;5.40;93.50;;;;;;6214775;23;20411;-60
2022/01/29 05:08:38;;;;;;;20.38;10.95;;;5.40;93.50;;;;;;6239933;23;20031;-61
2022/01/29 05:11:04;;;;;;;18.75;9.98;;;5.40;93.50;;;;;;6214474;23;20008;-61
2022/01/29 05:13:31;;;;;;;19.70;10.98;;;5.50;93.50;;;;;;6243288;23;20004;-60
2022/01/29 05:26:57;;;;;;;15.60;10.07;;;5.40;93.50;;;;;;6220230;23;20110;-62
2022/01/29 05:29:23;;;;;;;16.40;10.48;;;5.40;93.50;;;;;;6216702;23;20017;-59
2022/01/29 05:31:51;;;;;;;20.00;10.02;;;5.40;93.50;;;;;;6189909;23;20004;-61
2022/01/29 05:34:18;;;;;;;21.80;10.82;;;5.40;93.50;;;;;;6214049;23;20031;-58
2022/01/29 05:36:43;;;;;;;16.92;11.18;;;5.40;93.40;;;;;;6188599;23;20387;-62
2022/01/29 05:39:09;;;;;;;22.67;11.60;;;5.40;93.50;;;;;;6191172;23;20027;-60
2022/01/29 05:41:34;;;;;;;17.95;10.15;;;5.40;93.50;;;;;;6243058;23;20035;-62
2022/01/29 05:44:00;;;;;;;16.85;11.00;;;5.40;93.50;;;;;;6215946;23;20044;-60
2022/01/29 05:46:25;;;;;;;20.40;10.82;;;5.40;93.50;;;;;;6214034;23;20035;-61
2022/01/29 05:48:51;;;;;;;19.92;10.88;;;5.40;93.50;;;;;;6239468;23;20011;-61
2022/01/29 05:51:16;;;;;;;15.80;9.82;;;5.40;93.50;;;;;;6242649;23;20089;-62
2022/01/29 05:53:42;;;;;;;17.65;10.23;;;5.40;93.50;;;;;;6215191;23;20076;-61
2022/01/29 05:56:07;;;;;;;21.98;10.70;;;5.40;93.50;;;;;;6242771;23;20370;-60
2022/01/29 05:58:33;;;;;;;19.65;11.02;;;5.40;93.50;;;;;;6241877;23;20016;-60
2022/01/29 06:00:59;;;;;;;21.23;11.00;;;5.30;93.50;;;;;;6240534;23;20075;-60
2022/01/29 06:03:25;;;;;;;18.92;10.55;;;5.40;93.50;;;;;;6214298;23;20030;-62
2022/01/29 06:05:50;;;;;;;16.75;10.82;;;5.40;93.60;;;;;;6215325;23;20047;-59
2022/01/29 06:08:16;;;;;;;20.85;11.68;;;5.40;93.50;;;;;;6241974;23;20004;-61
2022/01/29 06:10:41;;;;;;;18.50;10.82;;;5.40;93.50;;;;;;6242042;23;20009;-62
2022/01/29 06:13:08;;;;;;;21.00;10.00;;;5.30;93.50;;;;;;6213706;23;20004;-61
2022/01/29 06:15:37;;;;;;;25.38;10.88;;;5.30;93.50;;;;;;6215972;23;19996;-62
2022/01/29 06:18:03;;;;;;;20.83;11.27;;;5.40;93.60;;;;;;6191166;23;20012;-60
2022/01/29 06:20:29;;;;;;;23.98;10.98;;;5.30;93.60;;;;;;6242791;23;20004;-59
2022/01/29 06:22:54;;;;;;;21.73;11.15;;;5.40;93.60;;;;;;6214887;23;20127;-61
2022/01/29 06:25:20;;;;;;;28.27;10.95;;;5.40;93.70;;;;;;6214659;23;20027;-60
2022/01/29 06:27:45;;;;;;;23.70;11.27;;;5.40;93.70;;;;;;6240771;23;20038;-62
2022/01/29 06:30:11;;;;;;;24.55;12.23;;;5.30;93.70;;;;;;6215746;23;20075;-60
2022/01/29 06:32:37;;;;;;;30.67;11.70;;;5.40;93.70;;;;;;6187887;23;20095;-60
2022/01/29 06:35:03;;;;;;;34.58;12.07;;;5.30;93.70;;;;;;6213969;23;20062;-60
2022/01/29 06:37:29;;;;;;;49.13;13.50;;;5.30;93.70;;;;;;6239187;23;20083;-61
2022/01/29 06:39:54;;;;;;;166.07;21.23;;;5.30;93.70;;;;;;6213861;23;20027;-59
2022/01/29 06:42:20;;;;;;;157.27;21.45;;;5.30;93.70;;;;;;6215381;23;20004;-60
2022/01/29 06:44:45;;;;;;;113.43;17.95;;;5.30;93.80;;;;;;6215556;23;20004;-60
2022/01/29 06:47:11;;;;;;;80.32;15.75;;;5.30;93.80;;;;;;6214749;23;20061;-59
2022/01/29 06:49:36;;;;;;;79.40;15.80;;;5.30;93.80;;;;;;6240504;23;20023;-60
2022/01/29 06:52:02;;;;;;;110.93;19.08;;;5.30;93.80;;;;;;6240317;23;20900;-61
2022/01/29 06:54:27;;;;;;;113.70;20.15;;;5.30;93.80;;;;;;6239445;23;20004;-62
2022/01/29 06:56:53;;;;;;;111.28;18.55;;;5.30;93.70;;;;;;6237041;23;20011;-59
2022/01/29 06:59:18;;;;;;;118.30;18.00;;;5.30;93.70;;;;;;6188016;23;20007;-60
2022/01/29 07:01:44;;;;;;;124.80;19.05;;;5.30;93.70;;;;;;6239049;23;20008;-62
2022/01/29 07:04:09;;;;;;;88.78;16.42;;;5.30;93.70;;;;;;6239344;23;20012;-61
2022/01/29 07:06:36;;;;;;;85.25;17.58;;;5.30;93.70;;;;;;6239282;23;20059;-61
2022/01/29 07:09:02;;;;;;;95.90;18.42;;;5.30;93.70;;;;;;6214949;23;20027;-60
2022/01/29 07:11:28;;;;;;;126.30;19.40;;;5.30;93.70;;;;;;6241794;23;20104;-59
2022/01/29 07:14:01;;;;;;;99.53;18.58;;;5.30;93.70;;;;;;6212692;23;20048;-61
2022/01/29 07:16:27;;;;;;;98.80;18.38;;;5.30;93.70;;;;;;6214182;23;20031;-62
2022/01/29 07:18:53;;;;;;;86.82;18.42;;;5.30;93.70;;;;;;6212344;23;20008;-60
2022/01/29 07:21:19;;;;;;;104.93;16.95;;;5.30;93.70;;;;;;6213595;23;20079;-60
2022/01/29 07:23:44;;;;;;;97.97;18.35;;;5.30;93.70;;;;;;6214588;23;20083;-60
2022/01/29 07:26:10;;;;;;;69.50;16.35;;;5.30;93.70;;;;;;6241046;23;20008;-59
2022/01/29 07:28:35;;;;;;;69.25;17.70;;;5.30;93.70;;;;;;6238209;23;20499;-59
2022/01/29 07:31:01;;;;;;;97.20;18.75;;;5.30;93.70;;;;;;6238024;23;20138;-60
2022/01/29 07:33:28;;;;;;;107.25;18.75;;;5.30;93.60;;;;;;6188586;23;20031;-60
2022/01/29 07:35:56;;;;;;;71.72;17.52;;;5.40;93.60;;;;;;6240863;23;19996;-63
2022/01/29 07:38:22;;;;;;;82.38;17.42;;;5.30;93.50;;;;;;6239654;23;20031;-61
2022/01/29 07:40:47;;;;;;;73.10;15.82;;;5.30;93.60;;;;;;6211059;23;20042;-59
2022/01/29 07:43:13;;;;;;;72.65;17.35;;;5.40;93.60;;;;;;6237255;23;20019;-59
2022/01/29 07:45:38;;;;;;;67.00;17.23;;;5.30;93.60;;;;;;6161050;23;20007;-60
2022/01/29 07:48:04;;;;;;;71.32;16.85;;;5.30;93.60;;;;;;6211885;23;20378;-60
2022/01/29 07:50:30;;;;;;;62.90;16.20;;;5.30;93.60;;;;;;6212904;23;20012;-60
2022/01/29 07:52:57;;;;;;;79.72;16.67;;;5.30;93.60;;;;;;6237749;23;20027;-61
2022/01/29 07:55:23;;;;;;;65.75;16.38;;;5.30;93.50;;;;;;6211982;23;20000;-60
2022/01/29 07:57:49;;;;;;;64.50;16.27;;;5.30;93.50;;;;;;6187599;23;20422;-62
2022/01/29 08:00:15;;;;;;;60.88;15.90;;;5.30;93.50;;;;;;6214248;23;20004;-62
2022/01/29 08:02:40;;;;;;;62.40;16.13;;;5.30;93.50;;;;;;6188723;23;20015;-63
2022/01/29 08:05:06;;;;;;;62.92;16.70;;;5.30;93.50;;;;;;6214347;23;20378;-61
2022/01/29 08:07:32;;;;;;;63.53;17.90;;;5.40;93.50;;;;;;6238557;23;20386;-60
2022/01/29 08:09:57;;;;;;;58.03;17.00;;;5.30;93.40;;;;;;6238854;23;20007;-58
2022/01/29 08:12:22;;;;;;;68.35;15.90;;;5.30;93.40;;;;;;6214050;23;20013;-59
2022/01/29 08:14:48;;;;;;;73.10;17.10;;;5.40;93.50;;;;;;6215839;23;20000;-61
2022/01/29 08:17:13;;;;;;;52.05;16.73;;;5.30;93.50;;;;;;6216021;23;20000;-60
2022/01/29 08:19:39;;;;;;;50.38;15.90;;;5.30;93.50;;;;;;6189689;23;20497;-62
2022/01/29 08:22:05;;;;;;;54.47;17.23;;;5.30;93.50;;;;;;6213389;23;20004;-59
2022/01/29 08:24:30;;;;;;;50.42;15.77;;;5.40;93.50;;;;;;6241866;23;20008;-59
2022/01/29 08:26:56;;;;;;;57.63;15.95;;;5.40;93.50;;;;;;6216069;23;19996;-59
2022/01/29 08:29:21;;;;;;;46.05;15.82;;;5.40;93.40;;;;;;6243230;23;20119;-62
2022/01/29 08:31:47;;;;;;;47.28;16.50;;;5.40;93.40;;;;;;6214112;23;20051;-59
2022/01/29 08:34:12;;;;;;;48.17;14.95;;;5.40;93.30;;;;;;6214077;23;20031;-59
2022/01/29 08:36:38;;;;;;;49.72;16.17;;;5.40;93.30;;;;;;6210522;23;20008;-61
2022/01/29 08:39:03;;;;;;;47.15;14.85;;;5.40;93.30;;;;;;6239920;23;20456;-62
2022/01/29 08:41:29;;;;;;;40.25;15.00;;;5.40;93.30;;;;;;6191285;23;20054;-62
2022/01/29 08:43:54;;;;;;;33.40;14.38;;;5.40;93.30;;;;;;6242223;23;20499;-60
2022/01/29 08:46:20;;;;;;;40.22;15.93;;;5.30;93.20;;;;;;6240458;23;20016;-60
2022/01/29 08:48:45;;;;;;;37.10;15.23;;;5.30;93.20;;;;;;6210147;23;20649;-61
2022/01/29 08:51:11;;;;;;;40.75;14.77;;;5.40;93.20;;;;;;6240560;23;20333;-60
2022/01/29 08:53:37;;;;;;;33.50;14.25;;;5.40;93.20;;;;;;6215420;23;20326;-61
2022/01/29 08:56:03;;;;;;;35.08;14.30;;;5.40;93.20;;;;;;6207391;23;20019;-62
2022/01/29 08:58:29;;;;;;;45.67;15.07;;;5.40;93.20;;;;;;6207149;23;20001;-61
2022/01/29 09:00:54;;;;;;;42.45;14.77;;;5.40;93.10;;;;;;6209114;23;20646;-59
2022/01/29 09:03:20;;;;;;;33.67;14.45;;;5.40;93.10;;;;;;6206808;23;20008;-60
2022/01/29 09:05:46;;;;;;;41.85;14.50;;;5.40;93.10;;;;;;6183616;23;20000;-59
2022/01/29 09:08:12;;;;;;;25.95;13.82;;;5.40;93.00;;;;;;6209886;23;20450;-62
2022/01/29 09:10:38;;;;;;;35.42;14.20;;;5.40;93.00;;;;;;6208157;23;20024;-60
2022/01/29 09:13:04;;;;;;;29.80;13.75;;;5.40;92.90;;;;;;6208554;23;20032;-59
2022/01/29 09:15:29;;;;;;;26.70;13.65;;;5.50;92.90;;;;;;6206198;23;20005;-61
2022/01/29 09:17:55;;;;;;;24.40;12.90;;;5.40;92.90;;;;;;6208874;23;19992;-62
2022/01/29 09:20:20;;;;;;;21.98;13.05;;;5.50;92.90;;;;;;6208637;23;20080;-59
2022/01/29 09:22:46;;;;;;;24.80;13.48;;;5.40;92.80;;;;;;6182840;23;20038;-58
2022/01/29 09:25:12;;;;;;;29.85;14.20;;;5.50;92.90;;;;;;6206879;23;20008;-62
2022/01/29 09:27:37;;;;;;;36.10;15.63;;;5.50;92.90;;;;;;6207847;23;20565;-62
2022/01/29 09:30:04;;;;;;;29.77;13.80;;;5.50;92.90;;;;;;6207782;23;20083;-61
2022/01/29 09:32:30;;;;;;;26.52;13.32;;;5.50;92.80;;;;;;6208199;23;20031;-61
2022/01/29 09:34:56;;;;;;;26.10;13.30;;;5.50;92.80;;;;;;6210412;23;20000;-59
2022/01/29 09:37:21;;;;;;;47.72;13.85;;;5.50;92.70;;;;;;6208505;23;20413;-61
2022/01/29 09:39:47;;;;;;;27.50;12.35;;;5.50;92.70;;;;;;6206839;23;20611;-60
2022/01/29 09:42:13;;;;;;;39.72;14.45;;;5.50;92.70;;;;;;6205660;23;20377;-61
2022/01/29 09:44:39;;;;;;;37.50;13.82;;;5.60;92.70;;;;;;6208948;23;19997;-59
2022/01/29 09:47:05;;;;;;;84.50;17.73;;;5.60;92.60;;;;;;6182603;23;20065;-59
2022/01/29 09:49:34;;;;;;;41.55;13.70;;;5.60;92.60;;;;;;6209821;23;20144;-62
2022/01/29 09:52:02;;;;;;;39.50;13.60;;;5.60;92.60;;;;;;6207888;23;20004;-59
2022/01/29 09:54:28;;;;;;;47.30;13.85;;;5.60;92.40;;;;;;6206156;23;20009;-60
2022/01/29 09:56:54;;;;;;;39.30;14.75;;;5.60;92.40;;;;;;6206338;23;20401;-62
2022/01/29 09:59:19;;;;;;;47.95;14.10;;;5.60;92.40;;;;;;6208183;23;19997;-61
2022/01/29 10:01:46;;;;;;;63.85;15.63;;;5.70;92.40;;;;;;6207738;23;20055;-59
2022/01/29 10:04:11;;;;;;;84.32;17.60;;;5.70;92.50;;;;;;6205963;23;20422;-61
2022/01/29 10:06:37;;;;;;;57.88;15.98;;;5.70;92.40;;;;;;6180499;23;20005;-60
2022/01/29 10:09:06;;;;;;;74.78;17.90;;;5.70;92.50;;;;;;6181103;23;20529;-61
2022/01/29 10:11:32;;;;;;;86.72;16.45;;;5.80;92.50;;;;;;6208910;23;20005;-61
2022/01/29 10:13:59;;;;;;;70.60;17.23;;;5.80;92.40;;;;;;6207826;23;20070;-60
2022/01/29 10:16:25;;;;;;;93.32;17.52;;;5.80;92.40;;;;;;6206873;23;20000;-60
2022/01/29 10:19:04;;;;;;;101.90;20.17;;;5.80;92.50;;;;;;6204892;23;20313;-59
2022/01/29 10:21:35;;;;;;;107.70;19.25;;;5.90;92.40;;;;;;6206329;23;20088;-61
2022/01/29 10:24:08;;;;;;;179.13;28.80;;;5.90;92.40;;;;;;6180690;23;20082;-59
2022/01/29 10:26:38;;;;;;;118.57;21.02;;;5.90;92.30;;;;;;6208927;23;20008;-59
2022/01/29 10:29:07;;;;;;;101.22;18.58;;;6.00;92.20;;;;;;6182202;23;20005;-58
2022/01/29 10:31:45;;;;;;;88.63;17.17;;;6.00;92.20;;;;;;6179402;23;20020;-61
2022/01/29 10:34:35;;;;;;;85.82;18.20;;;6.00;92.20;;;;;;6205311;23;20009;-61
2022/01/29 10:37:16;;;;;;;101.97;17.55;;;6.00;92.20;;;;;;6186629;23;20012;-61
2022/01/29 10:39:44;;;;;;;103.55;18.63;;;6.10;92.10;;;;;;6209296;23;20076;-58
2022/01/29 10:42:16;;;;;;;79.95;17.60;;;6.00;92.00;;;;;;6205448;23;20083;-58
2022/01/29 10:44:44;;;;;;;93.35;17.00;;;6.10;92.00;;;;;;6206875;23;20005;-60
2022/01/29 10:47:10;;;;;;;96.85;19.73;;;6.10;92.10;;;;;;6205238;23;20012;-59
2022/01/29 10:49:37;;;;;;;99.78;18.88;;;6.10;92.00;;;;;;6180263;23;20012;-60
2022/01/29 10:52:07;;;;;;;94.78;20.42;;;6.10;92.00;;;;;;6207680;23;20459;-61
2022/01/29 10:54:35;;;;;;;116.80;19.08;;;6.10;92.00;;;;;;6183035;23;20000;-58
2022/01/29 10:57:01;;;;;;;81.72;19.30;;;6.20;92.00;;;;;;6179184;23;20023;-62
2022/01/29 10:59:31;;;;;;;99.20;17.58;;;6.20;92.00;;;;;;6207263;23;20210;-60
2022/01/29 11:01:59;;;;;;;66.60;17.48;;;6.10;91.80;;;;;;6206757;23;20438;-61
2022/01/29 11:04:26;;;;;;;91.45;17.85;;;6.20;91.80;;;;;;6205604;23;20050;-62
2022/01/29 11:06:52;;;;;;;84.55;17.60;;;6.20;91.70;;;;;;6206208;23;20073;-60
2022/01/29 11:09:18;;;;;;;76.68;17.98;;;6.20;91.70;;;;;;6205638;23;20438;-60
2022/01/29 11:11:45;;;;;;;83.10;18.73;;;6.20;91.70;;;;;;6206221;23;20048;-61
2022/01/29 11:14:13;;;;;;;96.30;19.27;;;6.20;91.60;;;;;;6206383;23;20562;-60
2022/01/29 11:16:38;;;;;;;113.15;19.73;;;6.20;91.60;;;;;;6207212;23;20366;-59
2022/01/29 11:19:04;;;;;;;86.25;19.73;;;6.20;91.70;;;;;;6180627;23;20000;-58
2022/01/29 11:21:29;;;;;;;106.55;21.42;;;6.20;91.70;;;;;;6181540;23;20001;-61
2022/01/29 11:23:55;;;;;;;102.47;21.42;;;6.20;91.70;;;;;;6205916;23;20054;-59
2022/01/29 11:26:20;;;;;;;110.22;21.23;;;6.30;91.70;;;;;;6154149;23;20163;-61
2022/01/29 11:28:46;;;;;;;98.75;20.45;;;6.30;91.70;;;;;;6203860;23;20330;-62
2022/01/29 11:31:14;;;;;;;113.97;21.60;;;6.30;91.70;;;;;;6205235;23;20009;-61
2022/01/29 11:33:58;;;;;;;149.00;23.38;;;6.30;91.70;;;;;;6206566;23;20317;-60
2022/01/29 11:36:48;;;;;;;116.55;22.05;;;6.30;91.70;;;;;;6206164;23;20016;-60
2022/01/29 11:39:25;;;;;;;118.25;22.60;;;6.30;91.80;;;;;;6205869;23;20024;-62
2022/01/29 11:42:12;;;;;;;113.88;23.35;;;6.40;92.00;;;;;;6204522;23;20012;-60
2022/01/29 11:44:41;;;;;;;144.07;24.38;;;6.40;91.80;;;;;;6204375;23;20015;-60
2022/01/29 11:47:22;;;;;;;112.03;23.35;;;6.40;91.90;;;;;;6207304;23;20704;-59
2022/01/29 11:49:48;;;;;;;90.75;20.00;;;6.40;92.00;;;;;;6205149;23;20005;-59
2022/01/29 11:52:23;;;;;;;93.82;20.67;;;6.40;91.90;;;;;;6200792;23;20167;-64
2022/01/29 11:55:03;;;;;;;89.80;21.13;;;6.40;92.00;;;;;;6204243;23;20540;-62
2022/01/29 11:57:28;;;;;;;83.03;19.98;;;6.50;92.00;;;;;;6204388;23;20119;-61
2022/01/29 11:59:54;;;;;;;89.97;19.35;;;6.50;91.90;;;;;;6207645;23;20039;-63
2022/01/29 12:02:19;;;;;;;101.00;20.15;;;6.50;91.90;;;;;;6151645;23;20012;-61
2022/01/29 12:04:48;;;;;;;82.95;20.02;;;6.50;91.80;;;;;;6204488;23;20011;-60
2022/01/29 12:07:18;;;;;;;109.30;22.20;;;6.50;91.80;;;;;;6204087;23;20747;-61
2022/01/29 12:10:05;;;;;;;85.32;20.73;;;6.50;91.90;;;;;;6180408;23;20076;-62
2022/01/29 12:12:35;;;;;;;87.85;21.15;;;6.60;91.90;;;;;;6185791;23;20008;-62
2022/01/29 12:15:10;;;;;;;73.03;19.55;;;6.60;91.90;;;;;;6179427;23;20000;-60
2022/01/29 12:17:47;;;;;;;94.87;20.87;;;6.60;91.80;;;;;;6205261;23;20066;-60
2022/01/29 12:20:22;;;;;;;89.97;20.13;;;6.60;91.70;;;;;;6204052;23;20000;-61
2022/01/29 12:22:50;;;;;;;88.60;17.65;;;6.60;91.70;;;;;;6176419;23;20051;-63
2022/01/29 12:25:20;;;;;;;92.43;20.65;;;6.60;91.70;;;;;;6203742;23;20031;-62
2022/01/29 12:27:57;;;;;;;85.07;21.23;;;6.60;91.60;;;;;;6179314;23;20005;-63
2022/01/29 12:30:33;;;;;;;107.18;20.80;;;6.60;91.60;;;;;;6203536;23;20008;-63
2022/01/29 12:33:04;;;;;;;115.13;22.48;;;6.70;91.70;;;;;;6179882;23;20206;-61
2022/01/29 12:36:02;;;;;;;119.15;20.88;;;6.70;91.60;;;;;;6202929;23;20092;-63
2022/01/29 12:38:40;;;;;;;122.93;21.60;;;6.70;91.50;;;;;;6203354;23;20034;-63
2022/01/29 12:41:09;;;;;;;104.18;21.17;;;6.70;91.40;;;;;;6178458;23;20015;-63
2022/01/29 12:44:08;;;;;;;88.80;21.30;;;6.80;91.50;;;;;;6205146;23;20099;-58
2022/01/29 12:46:29;;;;;;;122.90;21.77;;;6.80;91.50;;;;;;6204074;23;20012;-61
2022/01/29 12:49:02;;;;;;;116.03;22.45;;;6.90;91.50;;;;;;6204035;23;20283;-64